Strona główna
METAR-TAF:

METAR-TAF

Lotnisko :

Port lotniczy Ushuaia

Ushuaia, Argentyna

Szerokość geograficzna: 54-48S, Długość geograficzna: 068-19W, wysokość: 16 m

Aktualna obserwacja pogody

Raport powstał 47 minut temu, godzina 22:00 UTC
Wiatr 23 kt od południowo-południowy zachód
Temperatura 10°C
Wilgotność 53%
Ciśnienie 999 hPa
Widzialność 10 km lub więcej
Rozproszone chmury na wysokości 4000 ft

METAR: SAWH 102200Z 20023KT 9999 SCT040 10/01 Q0999

czas: 19:47 (22:47 UTC)

Prognoza

Raport powstał 5 godziny i 47 minut temu, godzina 17:00 UTC
Prognoza ważna od 10 godzina 18 UTC do 11 godzina 18 UTC
Wiatr 20 kt od zachodnio-południowy zachód w porywach dochodzący do 30 kt
Widzialność 10 km lub więcej
Przerywane chmury na wysokości 2000 ft
Przerywane chmury na wysokości 3000 ft
Stopniowe zmiany
od 11 godzina 02 UTC do 11 godzina 04 UTC
Wiatr 7 kt z kierunków zmiennych
Przerywane chmury na wysokości 2500 ft

TAF: SAWH 101700Z 1018/1118 25020G30KT 9999 BKN020 BKN030 TX12/1118Z TN04/1109Z BECMG 1102/1104 VRB07KT BKN025

Obserwacja i prognoza pogody dla ponad 4000 lotnisk (raport METAR i TAF).

Dostępne stacje oznaczono żółtymi i czerwonymi punktami na mapie.

Najedź kursorem aby zobaczyć nazwę stacji.

Kliknij aby zobaczyć obserwacje i prognozy pogody.

Aby zmienić mapę: kliknij na zielony przycisk z czarnym krzyżykiem, aby powiększyć; na zielony przycisk z myślnikiem, aby pomniejszyć; na zielone strzałki, aby przejść do map sąsiednich.


METAR-TAF: